Time;durP1;ratioP1;P1;durP2;ratioP2;P2;SDS_P1;SDS_P2;PMS_P1;PMS_P2;Temp;Humidity;BMP_temperature;BMP_pressure;BME280_temperature;BME280_humidity;BME280_pressure;Samples;Min_cycle;Max_cycle;Signal;HPM_P1;HPM_P2
2022/07/18 00:00:20;;;;;;;10.90;2.50;;;;;;;12.05;68.29;101271.20;105616;1274;22571;-63
2022/07/18 00:03:08;;;;;;;10.20;2.30;;;;;;;12.01;68.42;101270.08;105533;1279;24532;-62
2022/07/18 00:05:39;;;;;;;9.70;2.40;;;;;;;11.97;68.45;101271.12;105509;1275;25265;-63
2022/07/18 00:08:11;;;;;;;13.10;3.00;;;;;;;11.93;68.75;101271.86;105510;1275;24272;-63
2022/07/18 00:10:43;;;;;;;9.50;2.30;;;;;;;11.87;68.84;101267.94;105604;1274;24489;-63
2022/07/18 00:13:14;;;;;;;12.80;2.50;;;;;;;11.84;68.87;101272.09;105567;1274;22574;-64
2022/07/18 00:15:46;;;;;;;10.60;2.60;;;;;;;11.80;69.10;101264.81;105546;1274;22617;-62
2022/07/18 00:18:18;;;;;;;12.80;2.70;;;;;;;11.78;69.11;101265.21;105612;1274;22584;-63
2022/07/18 00:20:49;;;;;;;11.90;2.60;;;;;;;11.74;69.29;101258.42;105571;1274;22563;-63
2022/07/18 00:23:21;;;;;;;10.00;3.00;;;;;;;11.71;69.32;101253.52;105567;1275;24279;-64
2022/07/18 00:25:52;;;;;;;8.70;2.40;;;;;;;11.67;69.48;101252.00;105538;1274;23145;-64
2022/07/18 00:28:24;;;;;;;11.70;2.50;;;;;;;11.64;69.45;101248.20;105606;1274;22568;-63
2022/07/18 00:30:56;;;;;;;10.60;2.30;;;;;;;11.60;69.58;101248.04;105642;1274;22541;-62
2022/07/18 00:33:27;;;;;;;10.20;2.10;;;;;;;11.57;69.62;101243.92;105817;1274;24482;-64
2022/07/18 00:35:59;;;;;;;12.40;2.30;;;;;;;11.55;69.83;101249.70;105799;1274;24141;-64
2022/07/18 00:38:31;;;;;;;8.30;2.30;;;;;;;11.51;69.98;101247.86;105648;1274;22527;-63
2022/07/18 00:41:03;;;;;;;9.00;2.40;;;;;;;11.49;69.96;101244.27;105670;1275;22551;-63
2022/07/18 00:43:34;;;;;;;11.80;3.30;;;;;;;11.46;69.95;101244.61;105559;1274;22545;-63
2022/07/18 00:46:06;;;;;;;9.00;2.20;;;;;;;11.44;70.30;101243.42;105564;1274;22538;-64
2022/07/18 00:48:38;;;;;;;12.70;2.30;;;;;;;11.42;70.31;101244.00;105585;1275;22564;-63
2022/07/18 00:51:10;;;;;;;9.00;2.20;;;;;;;11.37;70.54;101246.81;105473;1274;22538;-63
2022/07/18 00:53:42;;;;;;;10.30;2.50;;;;;;;11.33;70.90;101248.81;105577;1274;25346;-63
2022/07/18 00:56:17;;;;;;;9.00;2.50;;;;;;;11.30;71.01;101246.29;105645;1275;25187;-63
2022/07/18 00:58:49;;;;;;;10.80;1.90;;;;;;;11.28;71.00;101246.16;105649;1274;22580;-63
2022/07/18 01:04:12;;;;;;;13.00;2.30;;;;;;;11.21;71.17;101251.77;105425;1275;22907;-63
2022/07/18 01:06:43;;;;;;;9.90;2.50;;;;;;;11.17;71.22;101246.33;105589;1274;22547;-63
2022/07/18 01:09:15;;;;;;;7.70;2.20;;;;;;;11.16;71.22;101244.85;105635;1274;25356;-64
2022/07/18 01:11:47;;;;;;;10.80;2.40;;;;;;;11.14;71.28;101247.80;105712;1274;22550;-63
2022/07/18 01:14:19;;;;;;;12.60;2.40;;;;;;;11.10;71.27;101242.60;105604;1274;24286;-63
2022/07/18 01:16:52;;;;;;;7.20;1.90;;;;;;;11.08;71.24;101237.96;105601;1274;24376;-63
2022/07/18 01:19:24;;;;;;;9.20;2.00;;;;;;;11.05;71.29;101242.67;105698;1274;25116;-63
2022/07/18 01:21:56;;;;;;;9.10;1.80;;;;;;;11.01;71.50;101247.42;105637;1274;22695;-62
2022/07/18 01:24:27;;;;;;;11.50;1.90;;;;;;;10.98;71.51;101249.61;105963;1274;25309;-63
2022/07/18 01:26:58;;;;;;;8.70;2.40;;;;;;;10.95;71.75;101249.91;105508;1274;22566;-63
2022/07/18 01:29:30;;;;;;;11.50;2.50;;;;;;;10.92;71.78;101249.33;105768;1274;25787;-63
2022/07/18 01:32:07;;;;;;;10.20;1.90;;;;;;;10.89;71.76;101243.59;105617;1274;22569;-63
2022/07/18 01:34:39;;;;;;;11.30;2.30;;;;;;;10.87;72.08;101253.99;105561;1274;25324;-64
2022/07/18 01:37:11;;;;;;;10.10;2.20;;;;;;;10.83;72.06;101248.46;105536;1274;22537;-63
2022/07/18 01:39:43;;;;;;;7.70;2.00;;;;;;;10.80;72.16;101253.45;105671;1274;23348;-62
2022/07/18 01:42:15;;;;;;;7.00;1.80;;;;;;;10.76;72.21;101253.73;105550;1274;22547;-62
2022/07/18 01:44:47;;;;;;;11.40;2.30;;;;;;;10.74;72.24;101253.10;105647;1274;23103;-62
2022/07/18 01:47:19;;;;;;;8.80;1.80;;;;;;;10.71;72.32;101255.30;105609;1274;25223;-63
2022/07/18 01:49:51;;;;;;;8.30;1.90;;;;;;;10.68;72.41;101254.23;105564;1275;23377;-64
2022/07/18 01:52:23;;;;;;;5.80;1.70;;;;;;;10.65;72.40;101256.48;105517;1274;22538;-63
2022/07/18 01:54:55;;;;;;;9.60;2.10;;;;;;;10.62;72.43;101259.77;105496;1274;24677;-62
2022/07/18 01:57:26;;;;;;;11.70;2.80;;;;;;;10.58;72.52;101260.14;105554;1274;22557;-63
2022/07/18 01:59:58;;;;;;;14.40;3.00;;;;;;;10.56;72.61;101253.91;105567;1274;22559;-63
2022/07/18 02:02:30;;;;;;;9.00;2.80;;;;;;;10.54;72.65;101254.15;105608;1274;24278;-62
2022/07/18 02:05:02;;;;;;;11.50;2.90;;;;;;;10.52;72.92;101257.88;105512;1274;22992;-63
2022/07/18 02:07:37;;;;;;;10.00;2.70;;;;;;;10.50;72.92;101263.48;105561;1274;22527;-63
2022/07/18 02:10:12;;;;;;;15.00;2.60;;;;;;;10.48;73.10;101267.06;105502;1274;22623;-63
2022/07/18 02:12:43;;;;;;;10.60;2.00;;;;;;;10.46;73.14;101262.90;105711;1274;22555;-63
2022/07/18 02:15:17;;;;;;;13.50;2.10;;;;;;;10.44;73.24;101263.77;105704;1274;22547;-62
2022/07/18 02:17:48;;;;;;;5.70;1.80;;;;;;;10.43;73.22;101266.68;105696;1274;25257;-64
2022/07/18 02:20:20;;;;;;;10.80;2.20;;;;;;;10.42;73.39;101265.44;105586;1274;22551;-63
2022/07/18 02:22:52;;;;;;;17.30;1.70;;;;;;;10.41;73.54;101267.54;105446;1274;24383;-63
2022/07/18 02:25:23;;;;;;;11.40;2.40;;;;;;;10.41;73.58;101270.20;105542;1274;22534;-63
2022/07/18 02:27:55;;;;;;;9.30;1.90;;;;;;;10.39;73.66;101264.02;105637;1274;24328;-62
2022/07/18 02:30:28;;;;;;;13.60;1.80;;;;;;;10.40;73.81;101267.69;105560;1274;22573;-63
2022/07/18 02:33:00;;;;;;;10.90;1.70;;;;;;;10.38;73.88;101269.81;105481;1274;22537;-62
2022/07/18 02:35:32;;;;;;;7.40;1.90;;;;;;;10.37;74.10;101268.75;105622;1274;24251;-62
2022/07/18 02:38:04;;;;;;;7.20;1.70;;;;;;;10.35;74.23;101272.24;105688;1274;22563;-63
2022/07/18 02:40:36;;;;;;;9.70;1.50;;;;;;;10.34;74.33;101267.34;105633;1274;22571;-63
2022/07/18 02:43:07;;;;;;;7.80;1.70;;;;;;;10.35;74.27;101263.93;105640;1274;22595;-62
2022/07/18 02:45:38;;;;;;;10.80;2.30;;;;;;;10.37;74.40;101266.20;105571;1274;24441;-62
2022/07/18 02:48:10;;;;;;;8.00;1.60;;;;;;;10.37;74.62;101266.83;105575;1275;24246;-62
2022/07/18 02:50:41;;;;;;;8.80;1.70;;;;;;;10.37;74.74;101265.71;105607;1274;22544;-62
2022/07/18 02:53:13;;;;;;;7.00;1.60;;;;;;;10.37;74.72;101263.38;105682;1274;25278;-63
2022/07/18 02:55:45;;;;;;;6.90;1.80;;;;;;;10.38;74.73;101262.65;105637;1274;25260;-63
2022/07/18 02:58:16;;;;;;;8.40;1.50;;;;;;;10.38;74.96;101264.14;105588;1274;22538;-62
2022/07/18 03:00:48;;;;;;;6.10;1.50;;;;;;;10.39;75.02;101258.69;105635;1274;23294;-63
2022/07/18 03:03:19;;;;;;;15.30;1.90;;;;;;;10.40;75.09;101253.95;106252;1263;23054;-55
2022/07/18 03:05:51;;;;;;;8.90;1.80;;;;;;;10.42;75.26;101256.91;105606;1271;24354;-49
2022/07/18 03:08:23;;;;;;;9.50;2.60;;;;;;;10.43;75.25;101258.39;105769;1271;22520;-52
2022/07/18 03:10:55;;;;;;;8.30;1.50;;;;;;;10.44;75.31;101258.77;105746;1274;22652;-50
2022/07/18 03:13:27;;;;;;;10.60;2.10;;;;;;;10.45;75.46;101258.86;105994;1271;25357;-50
2022/07/18 03:15:58;;;;;;;7.40;1.70;;;;;;;10.48;75.40;101257.80;105598;1271;25406;-53
2022/07/18 03:18:30;;;;;;;9.10;1.90;;;;;;;10.49;75.55;101258.48;105695;1271;22528;-52
2022/07/18 03:21:01;;;;;;;8.60;1.60;;;;;;;10.49;75.57;101259.11;105782;1271;22559;-49
2022/07/18 03:23:32;;;;;;;11.80;1.70;;;;;;;10.51;75.61;101259.46;109682;1271;22564;-53
2022/07/18 03:26:06;;;;;;;9.60;1.80;;;;;;;10.53;75.71;101259.64;107119;1271;25301;-50
2022/07/18 03:28:38;;;;;;;6.50;1.50;;;;;;;10.54;75.94;101258.52;105722;1274;22628;-50
2022/07/18 03:31:11;;;;;;;12.40;1.90;;;;;;;10.57;76.03;101256.07;105928;1272;22539;-57
2022/07/18 03:33:43;;;;;;;6.80;1.50;;;;;;;10.59;76.18;101259.40;105843;1274;22554;-51
2022/07/18 03:36:17;;;;;;;9.70;1.60;;;;;;;10.63;76.11;101252.63;106017;1273;25257;-53
2022/07/18 03:38:49;;;;;;;10.20;2.40;;;;;;;10.67;76.35;101254.33;105769;1274;25252;-50
2022/07/18 03:41:21;;;;;;;7.70;1.50;;;;;;;10.71;76.51;101255.72;105668;1271;22570;-51
2022/07/18 03:43:52;;;;;;;6.90;1.60;;;;;;;10.74;76.72;101262.59;105646;1272;22537;-49
2022/07/18 03:46:24;;;;;;;9.80;1.60;;;;;;;10.78;76.90;101263.17;105794;1271;24430;-49
2022/07/18 03:48:55;;;;;;;12.50;1.70;;;;;;;10.80;77.05;101261.48;105915;1271;24313;-50
2022/07/18 03:51:27;;;;;;;10.20;2.10;;;;;;;10.83;77.13;101264.58;105685;1272;22528;-53
2022/07/18 03:53:58;;;;;;;8.50;1.80;;;;;;;10.86;76.98;101264.95;105839;1271;25313;-53
2022/07/18 03:56:30;;;;;;;9.50;1.90;;;;;;;10.90;77.08;101269.27;105680;1271;22571;-52
2022/07/18 03:59:02;;;;;;;9.70;1.70;;;;;;;10.93;77.26;101271.08;105691;1271;22529;-53
2022/07/18 04:01:34;;;;;;;10.20;2.10;;;;;;;10.96;77.43;101273.91;105767;1271;22556;-52
2022/07/18 04:04:05;;;;;;;8.40;1.60;;;;;;;10.98;77.39;101272.92;105907;1271;22531;-54
2022/07/18 04:06:37;;;;;;;8.40;1.60;;;;;;;11.02;77.36;101275.09;105722;1271;25358;-53
2022/07/18 04:09:08;;;;;;;15.40;1.80;;;;;;;11.06;77.57;101274.80;105629;1271;24360;-51
2022/07/18 04:11:39;;;;;;;9.50;1.70;;;;;;;11.10;77.79;101277.27;105656;1271;22637;-49
2022/07/18 04:14:11;;;;;;;7.60;1.80;;;;;;;11.15;77.67;101283.55;105874;1271;25655;-53
2022/07/18 04:16:43;;;;;;;15.10;2.40;;;;;;;11.19;77.55;101286.48;105882;1271;23942;-53
2022/07/18 04:19:16;;;;;;;11.00;2.20;;;;;;;11.25;77.77;101288.81;105693;1271;23192;-52
2022/07/18 04:21:48;;;;;;;11.90;1.70;;;;;;;11.31;77.68;101285.64;105677;1271;22547;-52
2022/07/18 04:24:19;;;;;;;13.40;2.40;;;;;;;11.36;77.81;101281.66;105810;1271;24330;-49
2022/07/18 04:26:51;;;;;;;7.50;2.00;;;;;;;11.43;78.11;101278.63;105770;1271;25105;-54
2022/07/18 04:29:23;;;;;;;14.10;2.50;;;;;;;11.49;78.18;101276.53;105863;1271;22515;-49
2022/07/18 04:31:54;;;;;;;12.60;2.20;;;;;;;11.55;78.42;101271.83;105548;1271;22564;-53
2022/07/18 04:34:25;;;;;;;10.30;2.60;;;;;;;11.61;78.18;101268.27;105623;1271;24819;-51
2022/07/18 04:36:57;;;;;;;12.40;1.70;;;;;;;11.68;78.01;101268.36;105813;1273;22854;-50
2022/07/18 04:39:28;;;;;;;9.20;1.50;;;;;;;11.76;77.94;101268.56;105658;1274;22586;-50
2022/07/18 04:42:01;;;;;;;15.00;1.70;;;;;;;11.84;77.42;101266.49;105564;1273;25401;-52
2022/07/18 04:44:33;;;;;;;16.30;2.10;;;;;;;11.91;77.00;101271.14;105652;1271;24991;-48
2022/07/18 04:47:05;;;;;;;15.90;1.70;;;;;;;12.00;77.23;101270.38;105724;1271;22611;-49
2022/07/18 04:49:36;;;;;;;8.80;1.50;;;;;;;12.08;76.72;101267.04;105572;1271;26498;-49
2022/07/18 04:52:08;;;;;;;11.20;1.50;;;;;;;12.16;76.73;101271.98;105596;1271;22588;-54
2022/07/18 04:54:40;;;;;;;11.70;1.80;;;;;;;12.24;76.44;101268.79;105877;1273;23925;-52
2022/07/18 04:57:14;;;;;;;19.10;1.90;;;;;;;12.30;76.34;101266.77;105820;1271;26715;-49
2022/07/18 04:59:49;;;;;;;9.90;1.90;;;;;;;12.37;76.16;101269.41;105677;1271;22561;-50
2022/07/18 05:02:20;;;;;;;13.00;1.90;;;;;;;12.45;75.97;101264.55;106008;1273;22599;-53
2022/07/18 05:04:52;;;;;;;12.70;1.90;;;;;;;12.54;76.17;101264.98;105900;1273;22534;-51
2022/07/18 05:07:23;;;;;;;13.40;2.20;;;;;;;12.63;76.54;101264.88;105781;1273;24730;-49
2022/07/18 05:09:54;;;;;;;11.70;2.00;;;;;;;12.73;76.79;101262.58;105760;1273;22528;-49
2022/07/18 05:12:26;;;;;;;11.80;2.40;;;;;;;12.82;76.69;101262.08;107632;1271;117025;-52
2022/07/18 05:14:57;;;;;;;12.30;1.90;;;;;;;12.91;76.64;101265.59;105498;1273;22547;-49
2022/07/18 05:17:28;;;;;;;9.00;2.10;;;;;;;13.01;76.27;101263.81;105609;1271;24289;-55
2022/07/18 05:20:01;;;;;;;9.70;2.00;;;;;;;13.14;76.08;101261.19;106141;1271;22550;-55
2022/07/18 05:22:33;;;;;;;7.60;1.60;;;;;;;13.27;75.42;101259.03;105496;1273;22555;-50
2022/07/18 05:25:05;;;;;;;13.30;1.40;;;;;;;13.40;74.89;101258.41;105646;1273;22573;-52
2022/07/18 05:27:37;;;;;;;7.30;1.30;;;;;;;13.52;74.77;101262.54;105722;1273;22541;-49
2022/07/18 05:30:12;;;;;;;9.90;1.80;;;;;;;13.64;74.50;101262.91;105660;1273;26513;-50
2022/07/18 05:32:44;;;;;;;9.20;2.10;;;;;;;13.75;74.13;101263.96;105719;1273;24435;-49
2022/07/18 05:35:16;;;;;;;10.30;2.10;;;;;;;13.87;74.35;101268.05;105791;1273;22585;-54
2022/07/18 05:37:48;;;;;;;11.20;2.10;;;;;;;13.98;74.07;101268.83;105581;1273;22561;-51
2022/07/18 05:40:20;;;;;;;10.50;2.00;;;;;;;14.11;74.33;101267.92;105787;1273;22613;-50
2022/07/18 05:42:51;;;;;;;9.40;2.00;;;;;;;14.24;73.74;101266.70;105665;1273;22554;-51
2022/07/18 05:45:24;;;;;;;9.20;1.70;;;;;;;14.36;73.80;101261.36;105638;1273;25478;-50
2022/07/18 05:47:56;;;;;;;8.80;1.80;;;;;;;14.51;74.03;101261.45;105686;1273;22585;-50
2022/07/18 05:50:28;;;;;;;7.30;2.00;;;;;;;14.68;73.83;101258.96;105613;1273;22531;-50
2022/07/18 05:52:59;;;;;;;9.40;1.50;;;;;;;14.83;73.74;101255.98;105796;1273;25246;-51
2022/07/18 05:55:31;;;;;;;5.30;1.40;;;;;;;14.97;73.44;101253.91;105791;1273;22548;-51
2022/07/18 05:58:02;;;;;;;9.10;1.40;;;;;;;15.08;73.04;101254.77;105724;1273;24218;-50
2022/07/18 06:00:35;;;;;;;11.00;2.00;;;;;;;15.19;73.09;101260.84;105785;1272;25195;-50
2022/07/18 06:03:07;;;;;;;7.30;1.30;;;;;;;15.31;72.65;101259.64;105768;1273;24203;-51
2022/07/18 06:05:40;;;;;;;11.80;1.40;;;;;;;15.42;72.26;101258.85;105613;1273;25249;-54
2022/07/18 06:08:13;;;;;;;7.20;1.40;;;;;;;15.55;72.40;101260.87;105921;1273;22539;-51
2022/07/18 06:10:45;;;;;;;5.30;1.10;;;;;;;15.70;72.01;101259.56;106150;1273;25231;-50
2022/07/18 06:13:17;;;;;;;9.10;1.60;;;;;;;15.84;71.12;101261.25;105916;1273;25656;-54
2022/07/18 06:15:49;;;;;;;9.50;1.50;;;;;;;15.97;70.36;101260.59;106071;1273;22528;-50
2022/07/18 06:18:20;;;;;;;6.80;1.20;;;;;;;16.08;69.80;101260.17;105987;1273;23880;-51
2022/07/18 06:20:52;;;;;;;7.20;1.00;;;;;;;16.17;69.12;101256.95;105879;1273;25309;-50
2022/07/18 06:23:25;;;;;;;10.70;1.50;;;;;;;16.26;69.13;101262.96;105810;1273;25255;-51
2022/07/18 06:25:56;;;;;;;9.30;1.50;;;;;;;16.36;69.02;101266.11;105997;1273;25316;-51
2022/07/18 06:28:28;;;;;;;10.40;1.60;;;;;;;16.45;68.34;101267.33;105554;1273;521526;-50
2022/07/18 06:31:02;;;;;;;5.10;1.00;;;;;;;16.57;68.62;101267.35;105897;1273;22605;-52
2022/07/18 06:33:33;;;;;;;9.40;1.00;;;;;;;16.66;67.57;101271.45;105677;1271;24227;-52
2022/07/18 06:36:05;;;;;;;8.10;1.00;;;;;;;16.71;67.35;101268.51;105967;1273;22790;-50
2022/07/18 06:38:37;;;;;;;6.30;1.70;;;;;;;16.78;67.59;101266.55;105927;1273;22736;-50
2022/07/18 06:41:09;;;;;;;8.10;1.80;;;;;;;16.89;67.17;101262.95;105692;1273;22554;-49
2022/07/18 06:43:42;;;;;;;6.10;1.30;;;;;;;16.97;66.96;101262.98;105671;1273;22569;-50
2022/07/18 06:46:14;;;;;;;6.90;1.20;;;;;;;17.07;66.99;101257.08;105749;1273;25328;-50
2022/07/18 06:48:45;;;;;;;5.90;0.90;;;;;;;17.18;66.84;101256.91;106132;1273;24342;-50
2022/07/18 06:51:17;;;;;;;5.60;0.90;;;;;;;17.30;66.52;101254.86;105894;1273;24222;-51
2022/07/18 06:53:48;;;;;;;10.30;1.30;;;;;;;17.42;66.72;101255.04;105839;1273;23972;-51
2022/07/18 06:56:20;;;;;;;8.00;0.70;;;;;;;17.57;66.17;101249.42;105940;1273;22604;-51
2022/07/18 06:58:52;;;;;;;4.90;0.90;;;;;;;17.73;65.37;101248.70;105917;1273;22559;-51
2022/07/18 07:01:24;;;;;;;5.90;0.90;;;;;;;17.85;64.71;101249.04;105877;1273;25627;-50
2022/07/18 07:03:55;;;;;;;6.50;1.00;;;;;;;17.97;64.67;101249.14;106002;1273;22564;-49
2022/07/18 07:06:27;;;;;;;7.40;1.10;;;;;;;18.07;64.09;101249.34;105709;1273;24218;-53
2022/07/18 07:08:58;;;;;;;11.10;0.90;;;;;;;18.16;63.59;101250.25;105719;1273;22628;-52
2022/07/18 07:11:33;;;;;;;10.50;0.90;;;;;;;18.27;63.22;101245.42;105881;1273;25235;-53
2022/07/18 07:14:06;;;;;;;9.40;0.80;;;;;;;18.38;62.89;101244.12;105784;1273;22586;-51
2022/07/18 07:16:38;;;;;;;2.80;0.50;;;;;;;18.47;62.32;101238.38;105965;1273;24222;-51
2022/07/18 07:19:09;;;;;;;11.20;1.20;;;;;;;18.64;61.78;101240.25;105802;1273;25211;-50
2022/07/18 07:21:41;;;;;;;7.00;0.60;;;;;;;18.76;61.57;101240.89;105750;1273;22606;-51
2022/07/18 07:24:13;;;;;;;3.00;0.70;;;;;;;18.88;60.59;101240.96;105696;1273;25552;-53
2022/07/18 07:26:44;;;;;;;7.30;1.10;;;;;;;18.98;60.48;101236.14;105847;1273;22690;-52
2022/07/18 07:29:17;;;;;;;4.40;0.70;;;;;;;19.10;60.02;101239.73;107867;1271;22523;-54
2022/07/18 07:31:49;;;;;;;4.40;0.80;;;;;;;19.20;59.75;101238.40;105832;1273;23496;-57
2022/07/18 07:34:21;;;;;;;5.00;0.70;;;;;;;19.34;59.46;101236.71;105815;1273;22543;-51
2022/07/18 07:36:52;;;;;;;4.80;0.60;;;;;;;19.46;58.64;101234.75;105633;1273;24250;-49
2022/07/18 07:39:23;;;;;;;4.40;0.50;;;;;;;19.55;58.32;101230.06;105675;1273;25528;-54
2022/07/18 07:41:55;;;;;;;12.30;1.00;;;;;;;19.65;57.19;101225.81;105658;1273;24326;-53
2022/07/18 07:44:27;;;;;;;4.90;0.60;;;;;;;19.78;57.28;101222.38;105752;1273;22538;-49
2022/07/18 07:46:59;;;;;;;4.70;0.50;;;;;;;19.89;56.32;101223.06;105500;1273;25365;-51
2022/07/18 07:49:33;;;;;;;5.30;0.90;;;;;;;19.97;55.90;101222.73;105604;1273;22548;-53
2022/07/18 07:52:05;;;;;;;5.60;0.80;;;;;;;20.06;55.25;101220.83;106121;1273;22730;-57
2022/07/18 07:54:41;;;;;;;8.40;0.80;;;;;;;20.20;55.36;101217.95;105977;1272;22650;-54
2022/07/18 07:57:18;;;;;;;8.50;0.70;;;;;;;20.39;54.31;101222.80;105964;1271;26622;-55
2022/07/18 07:59:57;;;;;;;3.70;0.40;;;;;;;20.49;52.88;101219.27;105751;1273;24542;-54
2022/07/18 08:02:32;;;;;;;3.80;0.50;;;;;;;20.53;52.76;101215.87;106086;1271;23938;-55
2022/07/18 08:05:12;;;;;;;5.70;0.50;;;;;;;20.66;52.47;101217.19;106004;1271;22706;-56
2022/07/18 08:07:46;;;;;;;3.90;0.50;;;;;;;20.80;51.58;101217.07;106074;1273;25479;-56
2022/07/18 08:10:19;;;;;;;5.50;0.50;;;;;;;20.98;51.27;101222.00;105795;1273;22708;-53
2022/07/18 08:12:51;;;;;;;4.70;0.80;;;;;;;21.03;49.85;101218.02;105835;1273;22848;-56
2022/07/18 08:15:25;;;;;;;5.10;0.50;;;;;;;21.05;50.29;101218.62;105844;1273;23968;-56
2022/07/18 08:17:57;;;;;;;3.40;0.50;;;;;;;21.10;49.89;101217.18;105905;1273;22677;-53
2022/07/18 08:20:34;;;;;;;1.90;0.40;;;;;;;21.22;49.81;101215.52;105748;1273;22531;-56
2022/07/18 08:23:13;;;;;;;3.90;0.40;;;;;;;21.39;49.21;101215.64;105582;1273;22517;-54
2022/07/18 08:25:47;;;;;;;5.40;0.60;;;;;;;21.41;47.73;101213.19;105813;1273;26754;-54
2022/07/18 08:28:19;;;;;;;3.60;0.40;;;;;;;21.38;46.95;101210.41;105756;1273;24282;-53
2022/07/18 08:30:52;;;;;;;6.80;0.50;;;;;;;21.38;46.88;101213.38;105850;1273;26471;-52
2022/07/18 08:33:23;;;;;;;2.70;0.40;;;;;;;21.43;46.41;101214.14;105791;1273;22541;-53
2022/07/18 08:35:56;;;;;;;9.10;0.90;;;;;;;21.48;46.15;101210.69;105669;1271;24263;-53
2022/07/18 08:38:28;;;;;;;5.50;0.40;;;;;;;21.55;46.29;101208.59;105795;1271;24224;-54
2022/07/18 08:41:04;;;;;;;5.60;0.40;;;;;;;21.68;46.35;101208.30;105893;1273;22556;-55
2022/07/18 08:43:36;;;;;;;3.50;0.50;;;;;;;21.84;45.82;101207.10;105739;1273;25631;-54
2022/07/18 08:46:21;;;;;;;2.90;0.30;;;;;;;21.92;45.16;101206.92;106488;1273;24254;-60
2022/07/18 08:49:03;;;;;;;2.80;0.60;;;;;;;21.94;44.27;101205.75;106429;1273;24292;-51
2022/07/18 08:51:36;;;;;;;4.60;0.50;;;;;;;21.98;44.25;101204.62;106228;1273;22716;-52
2022/07/18 08:54:07;;;;;;;7.10;0.50;;;;;;;22.05;43.72;101206.80;106411;1271;22558;-54
2022/07/18 08:56:39;;;;;;;5.20;0.60;;;;;;;22.10;43.48;101204.31;106387;1273;22709;-54
2022/07/18 08:59:10;;;;;;;2.40;0.30;;;;;;;22.12;43.53;101205.69;106322;1273;22596;-51
2022/07/18 09:01:42;;;;;;;3.80;0.50;;;;;;;22.20;43.39;101204.79;106552;1272;24215;-51
2022/07/18 09:04:31;;;;;;;7.40;0.50;;;;;;;22.31;43.24;101205.48;106262;1273;22630;-50
2022/07/18 09:07:04;;;;;;;8.20;0.80;;;;;;;22.42;42.68;101203.19;106191;1273;23149;-51
2022/07/18 09:09:36;;;;;;;4.60;0.40;;;;;;;22.45;42.86;101205.43;106225;1273;25576;-53
2022/07/18 09:12:10;;;;;;;3.10;0.40;;;;;;;22.50;42.38;101203.96;106204;1273;26664;-53
2022/07/18 09:14:44;;;;;;;5.30;0.40;;;;;;;22.59;41.86;101204.83;106179;1272;22550;-53
2022/07/18 09:17:18;;;;;;;5.20;0.50;;;;;;;22.69;41.29;101207.48;106249;1271;25351;-51
2022/07/18 09:20:03;;;;;;;3.50;0.50;;;;;;;22.71;40.40;101207.46;106285;1273;24219;-51
2022/07/18 09:22:36;;;;;;;7.30;0.60;;;;;;;22.60;40.20;101207.67;106233;1271;22549;-53
2022/07/18 09:25:11;;;;;;;4.70;0.40;;;;;;;22.58;39.98;101198.59;106209;1273;23306;-53
2022/07/18 09:27:45;;;;;;;4.60;0.50;;;;;;;22.59;39.47;101193.77;106292;1273;23121;-51
2022/07/18 09:30:24;;;;;;;5.50;0.70;;;;;;;22.57;39.36;101190.83;106184;1271;25621;-53
2022/07/18 09:33:07;;;;;;;5.30;0.50;;;;;;;22.56;39.57;101192.59;106444;1273;25360;-54
2022/07/18 09:35:43;;;;;;;8.80;0.60;;;;;;;22.61;39.76;101189.86;106203;1272;22938;-50
2022/07/18 09:38:15;;;;;;;3.50;0.50;;;;;;;22.73;40.20;101188.33;106068;1271;24740;-51
2022/07/18 09:40:48;;;;;;;6.40;1.10;;;;;;;22.88;39.64;101189.27;106240;1273;22534;-52
2022/07/18 09:43:27;;;;;;;3.80;0.40;;;;;;;22.93;39.53;101183.77;106423;1273;22549;-53
2022/07/18 09:46:29;;;;;;;3.10;0.40;;;;;;;23.02;39.57;101182.56;106509;1273;22568;-54
2022/07/18 09:49:17;;;;;;;5.70;0.40;;;;;;;23.21;39.42;101176.65;106997;1271;22568;-55
2022/07/18 09:52:06;;;;;;;4.40;0.70;;;;;;;23.36;39.04;101176.95;106299;1273;25361;-53
2022/07/18 09:54:40;;;;;;;;;;;;;;;23.49;39.35;101181.63;106196;1273;22595;-53
2022/07/18 09:57:24;;;;;;;3.90;0.50;;;;;;;23.65;38.78;101176.83;106351;1273;22560;-52
2022/07/18 09:59:56;;;;;;;6.00;0.60;;;;;;;23.76;38.04;101173.97;106097;1273;23191;-53
2022/07/18 10:02:28;;;;;;;3.70;0.50;;;;;;;23.80;38.67;101174.86;106235;1273;22552;-54
2022/07/18 10:05:01;;;;;;;4.70;0.60;;;;;;;23.85;38.16;101171.39;106727;1266;23114;-64
2022/07/18 10:07:33;;;;;;;2.40;0.40;;;;;;;23.88;38.21;101167.37;106174;1273;22552;-65
2022/07/18 10:10:05;;;;;;;4.70;0.40;;;;;;;23.91;37.29;101168.25;106045;1273;22498;-66
2022/07/18 10:12:37;;;;;;;6.10;0.50;;;;;;;23.90;37.24;101166.67;105957;1273;25267;-65
2022/07/18 10:15:10;;;;;;;3.20;0.40;;;;;;;23.85;36.73;101164.59;107206;1273;23106;-65
2022/07/18 10:17:42;;;;;;;2.30;0.40;;;;;;;23.87;36.51;101169.89;108505;1273;24233;-66
2022/07/18 10:20:15;;;;;;;2.10;0.40;;;;;;;23.85;36.26;101170.30;105847;1273;22600;-65
2022/07/18 10:22:47;;;;;;;7.50;0.50;;;;;;;23.81;36.10;101168.05;105795;1273;23964;-65
2022/07/18 10:25:25;;;;;;;3.80;0.40;;;;;;;23.83;36.37;101168.94;105865;1273;22560;-66
2022/07/18 10:28:04;;;;;;;2.90;0.50;;;;;;;23.90;36.51;101168.58;105720;1273;23582;-65
2022/07/18 10:30:38;;;;;;;4.00;0.40;;;;;;;24.02;36.39;101164.71;105717;1273;22711;-65
2022/07/18 10:33:40;;;;;;;4.10;0.60;;;;;;;24.05;35.74;101164.09;105757;1273;26368;-66
2022/07/18 10:36:14;;;;;;;7.30;0.50;;;;;;;23.97;35.48;101162.63;105698;1273;25260;-65
2022/07/18 10:39:10;;;;;;;6.30;0.60;;;;;;;23.93;35.50;101156.14;105851;1273;25572;-65
2022/07/18 10:42:15;;;;;;;7.40;0.70;;;;;;;23.89;35.18;101153.40;105776;1273;22531;-66
2022/07/18 10:44:47;;;;;;;5.50;0.50;;;;;;;23.87;34.78;101157.92;105765;1273;22739;-65
2022/07/18 10:47:22;;;;;;;2.80;0.50;;;;;;;23.82;34.80;101159.61;105854;1273;22557;-65
2022/07/18 10:50:09;;;;;;;2.80;0.30;;;;;;;23.89;35.49;101155.28;105747;1273;24326;-65
2022/07/18 10:53:00;;;;;;;3.60;0.40;;;;;;;23.97;35.42;101150.04;106112;1273;23718;-65
2022/07/18 10:55:33;;;;;;;5.30;0.50;;;;;;;24.03;35.19;101149.33;105703;1273;22564;-65
2022/07/18 10:58:22;;;;;;;5.90;0.60;;;;;;;24.07;34.98;101143.03;105757;1273;22567;-66
2022/07/18 11:01:01;;;;;;;3.00;0.60;;;;;;;24.13;35.10;101143.45;105793;1273;25333;-65
2022/07/18 11:03:35;;;;;;;5.70;0.40;;;;;;;24.20;35.26;101142.92;105820;1273;22651;-66
2022/07/18 11:06:07;;;;;;;4.50;0.50;;;;;;;24.33;35.26;101139.80;105852;1273;23089;-66
2022/07/18 11:08:41;;;;;;;4.00;0.70;;;;;;;24.50;35.39;101137.75;105665;1273;25498;-67
2022/07/18 11:11:16;;;;;;;8.30;0.60;;;;;;;24.67;34.85;101132.66;105879;1273;24436;-67
2022/07/18 11:13:52;;;;;;;4.70;0.70;;;;;;;24.74;34.63;101131.58;105672;1273;22601;-67
2022/07/18 11:16:25;;;;;;;7.00;0.60;;;;;;;24.67;34.04;101126.48;105804;1273;22556;-66
2022/07/18 11:19:19;;;;;;;4.60;0.60;;;;;;;24.58;33.81;101124.73;105814;1273;24241;-65
2022/07/18 11:22:00;;;;;;;4.80;0.70;;;;;;;24.57;34.01;101122.33;105768;1273;25333;-65
2022/07/18 11:24:33;;;;;;;3.20;0.50;;;;;;;24.59;34.01;101116.86;105647;1273;22570;-66
2022/07/18 11:27:07;;;;;;;4.70;0.50;;;;;;;24.68;34.15;101110.89;105703;1273;25532;-65
2022/07/18 11:29:44;;;;;;;7.00;0.80;;;;;;;24.77;34.00;101108.30;105740;1273;22550;-66
2022/07/18 11:32:23;;;;;;;3.00;0.50;;;;;;;24.77;33.28;101096.77;105704;1273;24225;-65
2022/07/18 11:34:54;;;;;;;4.40;0.60;;;;;;;24.73;33.02;101092.28;105787;1273;22561;-66
2022/07/18 11:37:26;;;;;;;2.20;0.40;;;;;;;24.72;33.15;101092.04;105638;1273;25319;-66
2022/07/18 11:40:07;;;;;;;4.10;0.50;;;;;;;24.75;33.48;101091.27;105689;1273;22534;-67
2022/07/18 11:42:39;;;;;;;6.20;0.60;;;;;;;24.81;33.44;101094.47;105642;1273;25331;-66
2022/07/18 11:45:14;;;;;;;5.20;0.80;;;;;;;24.86;33.48;101095.66;105843;1273;25353;-65